Time;durP1;ratioP1;P1;durP2;ratioP2;P2;SDS_P1;SDS_P2;PMS_P1;PMS_P2;Temp;Humidity;BMP_temperature;BMP_pressure;BME280_temperature;BME280_humidity;BME280_pressure;Samples;Min_cycle;Max_cycle;Signal;HPM_P1;HPM_P2
2021/06/01 00:00:14;;;;;;;9.85;5.65;;;;;;;18.96;58.17;100610.72;5021280;28;20050;-89
2021/06/01 00:02:39;;;;;;;9.82;5.28;;;;;;;18.81;58.74;100617.56;5015479;28;20488;-90
2021/06/01 00:05:08;;;;;;;7.28;4.82;;;;;;;18.97;58.55;100615.03;5024003;28;20081;-90
2021/06/01 00:07:34;;;;;;;6.65;4.78;;;;;;;18.88;58.78;100613.31;5015445;28;20026;-89
2021/06/01 00:10:00;;;;;;;9.45;5.53;;;;;;;18.76;59.27;100610.03;5029732;28;20042;-89
2021/06/01 00:12:25;;;;;;;9.55;5.35;;;;;;;18.74;59.72;100611.13;5033471;28;20076;-89
2021/06/01 00:14:51;;;;;;;7.38;5.95;;;;;;;18.92;59.29;100608.53;5032499;28;20032;-89
2021/06/01 00:17:16;;;;;;;10.30;5.97;;;;;;;19.17;57.85;100606.88;5033594;28;20032;-90
2021/06/01 00:19:42;;;;;;;8.27;5.85;;;;;;;18.82;58.61;100603.28;5029073;28;20037;-90
2021/06/01 00:22:07;;;;;;;10.27;6.10;;;;;;;18.69;59.17;100600.97;5015377;28;20026;-90
2021/06/01 00:24:34;;;;;;;9.40;6.03;;;;;;;18.71;58.90;100603.47;5016154;28;20026;-90
2021/06/01 00:27:00;;;;;;;8.55;5.60;;;;;;;18.76;58.80;100598.53;5015212;28;20068;-90
2021/06/01 00:29:25;;;;;;;9.10;6.03;;;;;;;18.69;58.37;100592.16;5015112;28;20038;-90
2021/06/01 00:31:51;;;;;;;8.02;6.20;;;;;;;18.87;57.92;100594.84;5014500;28;20069;-90
2021/06/01 00:34:16;;;;;;;9.63;6.97;;;;;;;19.06;57.22;100588.50;5015508;28;20109;-91
2021/06/01 00:36:42;;;;;;;8.90;6.68;;;;;;;18.82;57.67;100592.66;5014306;28;20072;-90
2021/06/01 00:39:08;;;;;;;8.75;5.82;;;;;;;19.09;57.25;100585.53;5032118;28;20029;-91
2021/06/01 00:41:33;;;;;;;9.60;5.97;;;;;;;19.13;56.87;100584.22;5031877;28;20029;-90
2021/06/01 00:44:00;;;;;;;11.65;6.70;;;;;;;19.00;57.30;100587.31;5024890;28;20018;-91
2021/06/01 00:46:25;;;;;;;9.23;5.88;;;;;;;19.10;57.31;100579.22;5014596;28;20022;-90
2021/06/01 00:48:50;;;;;;;13.45;7.05;;;;;;;19.01;57.47;100576.47;5018756;28;20066;-91
2021/06/01 00:51:17;;;;;;;9.27;7.28;;;;;;;18.93;57.47;100576.44;5031703;28;20045;-91
2021/06/01 00:53:42;;;;;;;9.90;7.32;;;;;;;18.86;57.58;100572.72;5031955;28;20029;-91
2021/06/01 00:56:08;;;;;;;10.40;6.95;;;;;;;18.86;57.90;100578.06;5022359;28;20026;-90
2021/06/01 00:58:34;;;;;;;8.60;7.50;;;;;;;18.92;57.52;100572.09;5014514;28;20053;-90
2021/06/01 01:03:25;;;;;;;8.80;6.75;;;;;;;18.81;57.51;100561.69;5014438;28;20490;-90
2021/06/01 01:05:51;;;;;;;11.77;7.45;;;;;;;18.97;56.78;100566.31;5022584;28;20245;-88
2021/06/01 01:11:23;;;;;;;9.27;7.68;;;;;;;18.94;57.03;100559.47;5031631;28;20037;-89
2021/06/01 01:13:53;;;;;;;10.50;7.15;;;;;;;18.91;57.12;100565.09;5026752;28;20033;-90
2021/06/01 01:16:22;;;;;;;12.73;7.28;;;;;;;18.90;57.26;100567.91;5012387;28;20172;-89
2021/06/01 01:18:54;;;;;;;10.88;7.68;;;;;;;18.79;57.88;100566.31;5010679;28;20034;-89
2021/06/01 01:21:35;;;;;;;11.30;7.57;;;;;;;18.85;57.85;100563.06;5015717;28;20084;-90
2021/06/01 01:24:22;;;;;;;10.60;7.43;;;;;;;18.80;57.89;100568.03;5018896;28;20033;-89
2021/06/01 01:26:59;;;;;;;10.68;6.40;;;;;;;18.82;58.00;100566.88;5013928;28;20034;-89
2021/06/01 01:29:37;;;;;;;9.40;6.78;;;;;;;18.70;58.28;100560.09;5014908;28;20032;-90
2021/06/01 01:32:05;;;;;;;7.72;6.32;;;;;;;18.67;58.76;100556.91;5015130;28;20033;-90
2021/06/01 01:34:33;;;;;;;12.48;7.25;;;;;;;18.65;58.41;100559.72;5032125;28;20491;-90
2021/06/01 01:37:00;;;;;;;10.23;6.68;;;;;;;18.53;59.14;100556.44;5032193;28;20422;-89
2021/06/01 01:39:29;;;;;;;8.18;6.90;;;;;;;18.48;59.67;100563.22;5031052;28;20017;-90
2021/06/01 01:41:55;;;;;;;11.45;7.43;;;;;;;18.36;60.16;100565.25;5031952;28;20036;-91
2021/06/01 01:44:25;;;;;;;8.95;7.70;;;;;;;18.35;59.97;100567.09;5016842;28;20416;-91
2021/06/01 01:46:59;;;;;;;8.73;7.03;;;;;;;18.26;61.07;100562.66;5016845;28;20022;-90
2021/06/01 01:49:25;;;;;;;10.50;7.95;;;;;;;18.12;61.27;100565.84;5014505;28;20056;-91
2021/06/01 01:51:57;;;;;;;13.85;8.38;;;;;;;18.23;60.76;100555.84;5013328;28;20534;-90
2021/06/01 01:54:24;;;;;;;11.43;8.90;;;;;;;18.05;60.89;100557.63;5016660;28;20479;-91
2021/06/01 01:56:54;;;;;;;11.75;7.15;;;;;;;18.01;61.35;100557.09;5031795;28;20487;-91
2021/06/01 01:59:24;;;;;;;12.35;8.18;;;;;;;18.09;60.86;100551.03;5030155;28;20025;-90
2021/06/01 02:01:52;;;;;;;11.52;8.07;;;;;;;18.04;60.87;100551.47;5013003;28;20064;-91
2021/06/01 02:04:29;;;;;;;13.00;8.15;;;;;;;18.21;60.43;100549.84;5029062;28;20033;-91
2021/06/01 02:06:55;;;;;;;14.85;8.38;;;;;;;18.20;60.35;100545.50;4997088;28;20480;-91
2021/06/01 02:09:21;;;;;;;17.02;9.18;;;;;;;18.17;60.67;100548.47;4994629;28;20026;-90
2021/06/01 02:11:47;;;;;;;11.13;8.00;;;;;;;18.19;59.94;100537.69;5004959;28;20033;-91
2021/06/01 02:14:12;;;;;;;14.45;7.82;;;;;;;18.11;61.21;100545.56;5011626;28;20037;-90
2021/06/01 02:16:40;;;;;;;11.55;7.70;;;;;;;18.13;60.52;100539.13;5011271;28;20037;-91
2021/06/01 02:19:09;;;;;;;11.65;8.25;;;;;;;18.09;61.55;100548.38;5029663;28;20024;-90
2021/06/01 02:24:22;;;;;;;11.48;8.30;;;;;;;17.90;61.47;100538.69;5030761;28;20044;-90
2021/06/01 02:26:53;;;;;;;13.35;8.93;;;;;;;17.98;61.42;100541.44;5012805;28;20141;-90
2021/06/01 02:29:32;;;;;;;15.77;8.90;;;;;;;17.62;63.52;100530.69;5011691;28;20431;-91
2021/06/01 02:31:58;;;;;;;10.90;7.78;;;;;;;17.80;62.29;100533.41;5012535;28;20506;-90
2021/06/01 02:34:25;;;;;;;14.68;10.02;;;;;;;17.80;62.70;100528.09;5021512;28;20033;-91
2021/06/01 02:36:52;;;;;;;12.77;9.10;;;;;;;17.69;62.63;100515.00;5026256;28;20498;-91
2021/06/01 02:39:20;;;;;;;14.15;8.48;;;;;;;17.72;62.68;100520.03;5031183;28;20022;-91
2021/06/01 02:41:47;;;;;;;12.75;9.30;;;;;;;17.47;64.45;100518.88;5031027;28;20042;-91
2021/06/01 02:44:13;;;;;;;10.35;8.55;;;;;;;17.43;64.64;100526.28;5031221;28;20025;-91
2021/06/01 02:46:40;;;;;;;10.73;8.57;;;;;;;17.29;64.55;100518.81;5029999;28;20079;-90
2021/06/01 02:49:05;;;;;;;15.85;9.30;;;;;;;17.25;64.26;100514.78;5015085;28;20025;-90
2021/06/01 02:51:33;;;;;;;13.32;8.90;;;;;;;17.30;64.63;100509.88;5013490;28;20064;-91
2021/06/01 02:53:59;;;;;;;13.80;8.85;;;;;;;17.36;64.31;100511.97;5028603;28;20034;-90
2021/06/01 02:56:25;;;;;;;14.63;9.02;;;;;;;17.50;63.28;100507.97;5022984;28;20117;-90
2021/06/01 02:58:51;;;;;;;14.77;9.43;;;;;;;17.45;63.66;100503.09;5030550;28;20163;-91
2021/06/01 03:01:19;;;;;;;12.65;8.18;;;;;;;17.35;64.04;100490.88;5030775;28;20030;-91
2021/06/01 03:03:49;;;;;;;12.63;9.10;;;;;;;17.27;64.24;100488.94;5015630;28;20044;-91
2021/06/01 03:06:16;;;;;;;14.40;9.15;;;;;;;17.29;64.89;100496.75;5023732;28;20415;-91
2021/06/01 03:08:42;;;;;;;16.40;8.50;;;;;;;16.96;66.39;100494.50;5021489;28;20101;-90
2021/06/01 03:11:08;;;;;;;13.27;8.40;;;;;;;16.81;67.15;100499.41;5018446;28;20112;-90
2021/06/01 03:13:34;;;;;;;12.25;8.45;;;;;;;16.66;68.70;100483.06;5022487;28;20181;-90
2021/06/01 03:16:00;;;;;;;13.32;8.02;;;;;;;16.66;68.14;100491.00;5029868;28;20108;-90
2021/06/01 03:18:25;;;;;;;13.75;9.23;;;;;;;16.78;67.80;100488.19;5016707;28;20060;-90
2021/06/01 03:20:51;;;;;;;14.48;10.05;;;;;;;16.94;66.56;100488.50;5025218;28;20064;-90
2021/06/01 03:23:17;;;;;;;13.13;8.73;;;;;;;16.88;67.37;100497.00;5027293;28;20059;-90
2021/06/01 03:25:43;;;;;;;14.75;9.25;;;;;;;16.56;69.07;100492.84;5023003;28;20037;-89
2021/06/01 03:28:08;;;;;;;15.68;10.82;;;;;;;16.38;70.26;100489.22;5029533;28;20025;-90
2021/06/01 03:30:37;;;;;;;12.27;9.18;;;;;;;16.65;68.62;100492.00;5029267;28;20025;-89
2021/06/01 03:33:04;;;;;;;15.25;9.45;;;;;;;16.42;69.43;100483.50;5032809;28;20025;-89
2021/06/01 03:35:29;;;;;;;11.45;8.45;;;;;;;16.58;68.33;100488.22;5013159;28;20030;-90
2021/06/01 03:37:55;;;;;;;12.60;9.18;;;;;;;16.74;68.70;100495.59;5016918;28;20109;-89
2021/06/01 03:40:23;;;;;;;14.18;9.70;;;;;;;16.41;69.16;100483.63;5016826;28;20029;-90
2021/06/01 03:42:48;;;;;;;17.27;9.80;;;;;;;16.78;68.50;100489.03;5017804;28;20021;-89
2021/06/01 03:45:15;;;;;;;15.32;8.13;;;;;;;16.85;68.43;100492.00;5033513;28;20082;-90
2021/06/01 03:47:41;;;;;;;13.68;9.88;;;;;;;16.69;69.74;100489.91;5034728;28;20108;-90
2021/06/01 03:50:08;;;;;;;12.13;8.88;;;;;;;16.71;69.31;100481.81;5028811;28;20034;-89
2021/06/01 03:52:33;;;;;;;14.45;9.18;;;;;;;16.68;69.27;100488.22;5020643;28;20379;-90
2021/06/01 03:54:59;;;;;;;12.55;9.35;;;;;;;16.58;70.54;100488.22;5016449;28;20033;-90
2021/06/01 03:57:24;;;;;;;13.18;8.45;;;;;;;16.59;69.56;100487.25;5033818;28;20485;-91
2021/06/01 03:59:50;;;;;;;18.45;10.05;;;;;;;16.56;70.19;100490.19;5017983;28;20029;-90
2021/06/01 04:02:15;;;;;;;14.32;8.55;;;;;;;16.49;70.68;100478.50;5033514;28;20503;-90
2021/06/01 04:04:41;;;;;;;14.55;9.30;;;;;;;16.68;69.79;100487.38;5029578;28;20034;-90
2021/06/01 04:07:09;;;;;;;14.10;9.88;;;;;;;16.87;68.94;100491.88;5015805;28;20032;-90
2021/06/01 04:09:35;;;;;;;12.63;9.63;;;;;;;16.59;70.14;100483.78;5016011;28;20431;-90
2021/06/01 04:12:00;;;;;;;14.20;10.27;;;;;;;16.83;68.88;100486.00;5020027;28;20061;-90
2021/06/01 04:14:25;;;;;;;13.10;10.25;;;;;;;16.91;68.42;100483.47;5032381;28;20045;-90
2021/06/01 04:16:51;;;;;;;12.88;9.65;;;;;;;16.84;68.75;100479.72;5015926;28;20018;-90
2021/06/01 04:19:16;;;;;;;14.85;10.30;;;;;;;16.50;70.53;100474.03;5014976;28;20435;-90
2021/06/01 04:21:43;;;;;;;13.15;10.07;;;;;;;16.41;70.78;100480.97;5013481;28;20029;-90
2021/06/01 04:24:09;;;;;;;15.38;10.07;;;;;;;16.23;70.97;100476.41;5015389;28;20256;-90
2021/06/01 04:26:35;;;;;;;15.57;10.93;;;;;;;16.11;72.32;100481.97;5015332;28;20029;-90
2021/06/01 04:29:00;;;;;;;18.45;10.52;;;;;;;16.05;72.63;100481.56;5015408;28;20108;-90
2021/06/01 04:31:26;;;;;;;15.98;9.35;;;;;;;16.09;72.62;100482.09;5016117;28;20022;-89
2021/06/01 04:33:51;;;;;;;13.50;9.98;;;;;;;16.12;73.37;100481.00;5015180;28;20419;-89
2021/06/01 04:36:16;;;;;;;13.02;9.55;;;;;;;16.09;73.53;100484.75;5029152;28;20030;-90
2021/06/01 04:38:42;;;;;;;12.80;9.90;;;;;;;16.14;73.07;100474.59;5033611;28;20125;-90
2021/06/01 04:41:07;;;;;;;14.10;11.13;;;;;;;16.23;72.15;100473.75;5017805;28;20088;-91
2021/06/01 04:43:33;;;;;;;14.73;11.13;;;;;;;16.25;72.00;100477.09;5013918;28;20014;-90
2021/06/01 04:45:58;;;;;;;16.33;10.68;;;;;;;16.28;72.53;100473.34;5031770;28;20159;-90
2021/06/01 04:48:24;;;;;;;17.55;12.13;;;;;;;16.13;73.49;100478.19;5033578;28;20191;-90
2021/06/01 04:50:49;;;;;;;17.58;12.40;;;;;;;15.91;74.64;100478.47;5023619;28;20038;-90
2021/06/01 04:53:15;;;;;;;14.23;11.80;;;;;;;16.22;72.81;100477.38;5029809;28;20032;-90
2021/06/01 04:55:41;;;;;;;24.48;12.95;;;;;;;16.17;72.61;100479.63;5033150;28;20104;-90
2021/06/01 04:58:06;;;;;;;14.27;11.10;;;;;;;16.13;73.35;100472.06;5024265;28;20088;-90
2021/06/01 05:00:32;;;;;;;17.25;11.15;;;;;;;16.10;73.26;100472.34;5015819;28;20423;-91
2021/06/01 05:02:57;;;;;;;15.70;11.85;;;;;;;15.96;74.38;100460.34;5014556;28;20022;-91
2021/06/01 05:05:23;;;;;;;20.00;12.05;;;;;;;16.11;73.66;100469.53;5014567;28;20034;-91
2021/06/01 05:07:48;;;;;;;19.10;12.95;;;;;;;15.95;75.33;100463.97;5032273;28;20033;-91
2021/06/01 05:10:14;;;;;;;15.60;12.60;;;;;;;16.06;74.29;100469.16;5016616;28;20025;-91
2021/06/01 05:12:39;;;;;;;17.50;12.35;;;;;;;15.90;75.31;100456.44;5017286;28;20083;-91
2021/06/01 05:15:06;;;;;;;21.58;12.20;;;;;;;16.06;74.88;100458.56;5015456;28;20021;-90
2021/06/01 05:17:32;;;;;;;16.13;10.77;;;;;;;16.12;74.13;100454.50;5012048;28;20026;-89
2021/06/01 05:19:58;;;;;;;16.77;11.50;;;;;;;16.25;73.58;100460.34;5017734;28;20057;-90
2021/06/01 05:22:23;;;;;;;17.67;10.60;;;;;;;16.39;72.68;100454.66;5019202;28;20053;-90
2021/06/01 05:24:49;;;;;;;15.15;10.50;;;;;;;16.56;72.25;100460.19;5007166;28;20096;-90
2021/06/01 05:27:14;;;;;;;17.83;11.57;;;;;;;16.68;72.00;100452.94;5009004;28;20022;-90
2021/06/01 05:29:44;;;;;;;16.02;11.23;;;;;;;16.80;70.76;100455.25;5010455;28;20034;-90
2021/06/01 05:34:47;;;;;;;15.45;11.32;;;;;;;16.80;71.09;100449.13;5014192;28;20523;-88
2021/06/01 05:37:12;;;;;;;19.00;11.95;;;;;;;16.64;70.84;100461.16;5014052;28;20467;-89
2021/06/01 05:39:38;;;;;;;13.02;9.65;;;;;;;16.81;69.63;100462.28;5022216;28;20066;-89
2021/06/01 05:42:03;;;;;;;16.73;11.45;;;;;;;16.72;71.14;100454.31;5021370;28;20537;-88
2021/06/01 05:44:32;;;;;;;13.18;10.30;;;;;;;16.94;70.96;100458.47;5021552;28;20028;-88
2021/06/01 05:46:57;;;;;;;16.88;11.30;;;;;;;16.96;70.52;100449.41;5024555;28;20025;-88
2021/06/01 05:49:23;;;;;;;15.55;10.85;;;;;;;17.23;70.09;100463.69;5028782;28;20572;-91
2021/06/01 05:51:48;;;;;;;15.52;10.57;;;;;;;17.36;69.66;100461.53;5023246;28;20048;-88
2021/06/01 05:54:14;;;;;;;14.70;10.65;;;;;;;17.01;71.49;100451.63;5028909;28;20029;-87
2021/06/01 05:56:40;;;;;;;15.80;10.95;;;;;;;17.17;70.19;100456.31;5030635;28;20021;-88
2021/06/01 05:59:05;;;;;;;16.80;9.95;;;;;;;17.04;69.94;100449.50;5027490;28;20029;-88
2021/06/01 06:01:32;;;;;;;14.55;9.55;;;;;;;17.15;69.43;100452.97;5015968;28;20022;-87
2021/06/01 06:03:57;;;;;;;15.25;9.68;;;;;;;17.16;68.94;100449.31;5022794;28;20718;-87
2021/06/01 06:06:22;;;;;;;19.55;10.38;;;;;;;17.18;69.82;100447.34;5015273;28;20021;-87
2021/06/01 06:08:48;;;;;;;14.18;9.98;;;;;;;17.33;69.04;100453.03;5013338;28;20021;-87
2021/06/01 06:11:13;;;;;;;14.95;10.00;;;;;;;17.95;67.07;100453.22;5019580;28;20021;-87
2021/06/01 06:13:39;;;;;;;13.52;9.50;;;;;;;18.72;64.91;100437.56;5020726;28;20468;-88
2021/06/01 06:16:04;;;;;;;15.93;9.55;;;;;;;19.45;62.23;100461.13;5012531;28;20018;-89
2021/06/01 06:18:30;;;;;;;16.55;9.63;;;;;;;20.20;59.22;100445.16;5011516;28;20030;-88
2021/06/01 06:21:00;;;;;;;11.27;8.85;;;;;;;20.86;54.05;100460.31;5019483;28;20025;-88
2021/06/01 06:23:26;;;;;;;14.90;8.68;;;;;;;21.04;52.92;100452.09;5025528;28;20088;-90
2021/06/01 06:25:51;;;;;;;13.43;8.25;;;;;;;21.74;52.47;100451.28;5010927;28;20030;-88
2021/06/01 06:28:16;;;;;;;9.23;7.45;;;;;;;22.21;49.95;100457.50;5029138;28;20021;-89
2021/06/01 06:30:42;;;;;;;13.27;8.43;;;;;;;22.71;48.15;100448.06;5020221;28;20419;-89
2021/06/01 06:33:07;;;;;;;11.00;7.70;;;;;;;23.51;44.78;100446.50;5019744;28;20045;-88
2021/06/01 06:35:33;;;;;;;9.55;7.22;;;;;;;24.19;42.70;100439.00;5012234;28;20052;-88
2021/06/01 06:37:58;;;;;;;9.18;6.65;;;;;;;24.78;42.95;100443.19;5013962;28;20545;-89
2021/06/01 06:40:24;;;;;;;18.70;6.68;;;;;;;25.22;41.05;100450.09;5023393;28;20391;-89
2021/06/01 06:42:49;;;;;;;13.75;7.75;;;;;;;25.36;39.77;100445.59;5031538;28;20049;-89
2021/06/01 06:45:16;;;;;;;9.05;7.20;;;;;;;25.92;38.80;100440.00;5030912;28;20034;-89
2021/06/01 06:50:12;;;;;;;12.50;7.00;;;;;;;26.46;36.65;100448.97;5012733;28;20026;-89
2021/06/01 06:52:39;;;;;;;10.03;5.93;;;;;;;26.71;36.28;100442.94;5024160;28;20041;-89
2021/06/01 06:55:08;;;;;;;10.07;6.30;;;;;;;26.56;37.17;100450.38;5031067;28;20263;-89
2021/06/01 06:57:34;;;;;;;9.48;6.43;;;;;;;26.86;35.77;100448.94;5018155;28;20038;-89
2021/06/01 06:59:59;;;;;;;12.43;6.05;;;;;;;27.16;36.07;100436.84;5019978;28;20021;-89
2021/06/01 07:02:28;;;;;;;11.77;6.93;;;;;;;27.17;34.79;100436.59;5027576;28;20047;-89
2021/06/01 07:04:53;;;;;;;11.32;6.18;;;;;;;27.70;34.69;100438.25;5030637;28;20025;-88
2021/06/01 07:07:19;;;;;;;11.90;7.43;;;;;;;28.05;33.64;100438.69;5028886;28;20088;-89
2021/06/01 07:09:44;;;;;;;9.30;6.25;;;;;;;28.31;33.92;100438.72;5012520;28;20022;-89
2021/06/01 07:12:10;;;;;;;16.58;6.97;;;;;;;28.67;33.01;100435.28;5000644;28;20034;-89
2021/06/01 07:14:49;;;;;;;10.88;5.40;;;;;;;29.30;32.00;100441.47;4992504;28;20440;-90
2021/06/01 07:17:16;;;;;;;11.45;6.55;;;;;;;29.18;31.67;100447.66;4992491;28;20032;-89
2021/06/01 07:19:43;;;;;;;12.88;6.35;;;;;;;29.39;32.26;100432.03;4992537;28;20023;-90
2021/06/01 07:22:08;;;;;;;6.25;5.18;;;;;;;29.57;31.00;100444.69;4992234;28;20507;-89
2021/06/01 07:24:33;;;;;;;10.25;6.28;;;;;;;30.07;30.49;100435.44;4992585;28;20057;-89
2021/06/01 07:27:01;;;;;;;9.48;5.55;;;;;;;30.59;30.35;100435.63;4996151;28;20058;-90
2021/06/01 07:29:26;;;;;;;13.15;6.10;;;;;;;31.02;30.04;100432.56;4992285;28;20038;-89
2021/06/01 07:31:52;;;;;;;53.10;8.63;;;;;;;31.38;30.13;100427.84;4992306;28;20035;-90
2021/06/01 07:34:18;;;;;;;11.52;5.35;;;;;;;31.72;29.06;100425.25;4994180;28;20049;-90
2021/06/01 07:36:43;;;;;;;7.05;4.95;;;;;;;31.93;28.42;100437.31;5015987;28;20088;-90
2021/06/01 07:39:09;;;;;;;6.95;4.75;;;;;;;32.17;28.49;100435.28;5020529;28;20084;-90
2021/06/01 07:41:35;;;;;;;8.82;5.07;;;;;;;32.15;28.63;100445.59;5018514;28;20056;-90
2021/06/01 07:44:03;;;;;;;6.05;4.85;;;;;;;32.45;27.82;100441.69;5030078;28;20475;-89
2021/06/01 07:46:29;;;;;;;8.90;5.10;;;;;;;32.29;28.32;100440.63;5026527;28;20033;-89
2021/06/01 07:48:54;;;;;;;7.78;4.68;;;;;;;32.74;27.20;100439.72;5016855;28;20528;-90
2021/06/01 07:51:28;;;;;;;13.32;4.20;;;;;;;32.32;29.39;100442.84;5019922;28;20455;-89
2021/06/01 07:53:53;;;;;;;6.45;4.53;;;;;;;32.52;28.32;100439.63;5014462;28;20029;-91
2021/06/01 07:56:19;;;;;;;8.57;5.00;;;;;;;32.36;28.71;100435.84;5024052;28;20022;-89
2021/06/01 07:58:47;;;;;;;8.38;4.25;;;;;;;32.69;27.88;100442.34;5014362;28;20140;-87
2021/06/01 08:01:12;;;;;;;7.07;5.15;;;;;;;32.58;27.09;100429.66;5013283;28;20577;-89
2021/06/01 08:03:37;;;;;;;9.13;4.85;;;;;;;32.39;28.00;100440.78;5012198;28;20125;-88
2021/06/01 08:06:03;;;;;;;8.27;5.45;;;;;;;32.60;27.92;100436.53;5018090;28;20048;-89
2021/06/01 08:08:29;;;;;;;9.80;4.72;;;;;;;32.61;28.30;100442.78;5031226;28;20419;-91
2021/06/01 08:10:54;;;;;;;6.80;5.40;;;;;;;32.70;28.04;100427.69;5025483;28;20030;-90
2021/06/01 08:13:20;;;;;;;6.13;3.90;;;;;;;33.40;27.54;100444.34;5003287;28;20476;-88
2021/06/01 08:15:49;;;;;;;8.90;4.90;;;;;;;33.20;26.80;100425.91;5013034;28;20053;-89
2021/06/01 08:18:15;;;;;;;9.95;5.55;;;;;;;33.54;26.53;100436.63;5016233;28;20559;-90
2021/06/01 08:20:52;;;;;;;7.05;4.75;;;;;;;33.28;27.80;100430.06;5036096;28;20068;-90
2021/06/01 08:23:18;;;;;;;6.20;4.13;;;;;;;33.21;27.80;100424.00;5020058;28;20033;-90
2021/06/01 08:25:43;;;;;;;6.03;3.58;;;;;;;33.83;27.04;100428.19;5016204;28;20026;-89
2021/06/01 08:28:09;;;;;;;8.68;4.45;;;;;;;33.71;27.22;100426.47;5010427;28;20037;-88
2021/06/01 08:30:34;;;;;;;12.07;5.18;;;;;;;34.09;27.42;100426.53;5023148;28;20530;-87
2021/06/01 08:32:59;;;;;;;21.70;5.40;;;;;;;34.20;25.94;100420.09;5036937;28;20029;-89
2021/06/01 08:35:25;;;;;;;23.92;6.07;;;;;;;33.98;26.71;100420.97;5029720;28;20033;-90
2021/06/01 08:37:50;;;;;;;9.35;4.50;;;;;;;33.85;26.90;100421.44;5026656;28;20030;-89
2021/06/01 08:40:16;;;;;;;7.82;3.85;;;;;;;34.53;25.73;100412.69;5026588;28;20037;-89
2021/06/01 08:42:41;;;;;;;8.15;3.85;;;;;;;34.93;24.96;100397.63;5016923;28;20404;-88
2021/06/01 08:45:09;;;;;;;5.40;3.88;;;;;;;34.62;25.76;100404.81;5015742;28;20045;-87
2021/06/01 08:47:34;;;;;;;8.75;4.32;;;;;;;35.45;23.95;100404.94;5010987;28;20116;-88
2021/06/01 08:50:04;;;;;;;6.00;3.38;;;;;;;34.81;25.33;100406.03;5014644;28;20475;-89
2021/06/01 08:52:29;;;;;;;6.22;3.58;;;;;;;35.45;25.29;100404.94;5015767;28;20447;-88
2021/06/01 08:54:55;;;;;;;8.70;3.05;;;;;;;36.02;22.85;100394.91;5014050;28;20026;-88
2021/06/01 08:57:21;;;;;;;10.82;3.83;;;;;;;36.23;22.98;100392.97;4995207;28;20019;-88
2021/06/01 08:59:47;;;;;;;6.30;3.30;;;;;;;36.12;23.99;100396.81;4995150;28;20045;-88
2021/06/01 09:02:19;;;;;;;8.38;3.97;;;;;;;35.61;23.55;100396.78;5019315;28;20041;-88
2021/06/01 09:04:54;;;;;;;5.18;2.97;;;;;;;35.96;22.35;100397.88;5013930;28;20034;-88
2021/06/01 09:21:14;;;;;;;;;;;;;;;35.85;23.10;100397.06;4965510;28;20038;-87
2021/06/01 09:23:49;;;;;;;12.88;3.42;;;;;;;35.87;22.42;100392.97;5016745;28;19921;-88
2021/06/01 09:26:38;;;;;;;6.75;2.78;;;;;;;36.28;22.17;100392.97;5005640;28;20030;-87
2021/06/01 09:29:04;;;;;;;6.75;3.30;;;;;;;35.62;23.58;100387.47;4993985;28;20092;-88
2021/06/01 09:31:29;;;;;;;3.75;2.75;;;;;;;35.79;23.64;100385.34;5017129;28;20026;-87
2021/06/01 09:33:54;;;;;;;4.15;2.90;;;;;;;36.22;23.02;100380.41;5033859;28;20029;-88
2021/06/01 09:36:22;;;;;;;4.90;2.10;;;;;;;36.48;21.97;100391.28;5022004;28;20088;-88
2021/06/01 09:38:48;;;;;;;4.85;2.15;;;;;;;36.26;22.20;100386.16;5013831;28;20030;-88
2021/06/01 09:41:17;;;;;;;7.80;2.85;;;;;;;36.52;22.48;100376.78;5013197;28;20037;-87
2021/06/01 09:43:53;;;;;;;4.00;2.85;;;;;;;36.64;22.28;100372.94;4997956;28;20129;-87
2021/06/01 09:46:19;;;;;;;10.13;2.30;;;;;;;36.83;22.44;100373.13;5001580;28;20449;-88
2021/06/01 09:48:45;;;;;;;4.13;2.10;;;;;;;36.79;21.69;100378.38;5013944;28;20113;-87
2021/06/01 09:51:12;;;;;;;7.43;2.05;;;;;;;37.08;20.74;100377.66;5013704;28;20045;-88
2021/06/01 09:53:37;;;;;;;4.35;2.50;;;;;;;37.05;20.50;100381.78;5013596;28;20476;-87
2021/06/01 09:56:03;;;;;;;3.72;1.70;;;;;;;37.15;21.81;100380.09;5013543;28;20042;-87
2021/06/01 09:58:30;;;;;;;4.45;2.17;;;;;;;37.81;20.55;100374.19;4999429;28;20030;-88
2021/06/01 10:00:58;;;;;;;4.10;2.85;;;;;;;37.53;20.71;100385.91;4994352;28;20026;-87
2021/06/01 10:03:32;;;;;;;5.18;2.45;;;;;;;37.31;22.06;100376.19;5031055;28;20037;-88
2021/06/01 10:05:57;;;;;;;4.13;2.65;;;;;;;37.39;21.05;100372.84;5022630;28;20033;-87
2021/06/01 10:08:27;;;;;;;7.65;2.30;;;;;;;37.36;21.79;100376.16;5024138;28;20029;-87
2021/06/01 10:10:54;;;;;;;7.70;2.42;;;;;;;38.13;20.57;100380.25;5031627;28;20030;-87
2021/06/01 10:13:21;;;;;;;4.78;2.90;;;;;;;39.91;19.21;100375.44;5013702;28;20061;-88
2021/06/01 10:15:49;;;;;;;2.83;1.98;;;;;;;39.00;18.85;100374.59;5011487;28;20148;-88
2021/06/01 10:18:16;;;;;;;9.43;2.45;;;;;;;38.11;20.15;100372.28;5013261;28;20030;-88
2021/06/01 10:20:45;;;;;;;6.22;2.38;;;;;;;37.72;20.48;100367.72;5013520;28;20492;-88
2021/06/01 10:23:13;;;;;;;10.50;3.10;;;;;;;38.28;21.26;100363.63;5013643;28;20025;-87
2021/06/01 10:25:39;;;;;;;6.25;2.50;;;;;;;39.41;18.65;100360.25;5013204;28;20148;-87
2021/06/01 10:28:08;;;;;;;7.22;2.58;;;;;;;39.56;19.00;100353.75;5013045;28;20500;-88
2021/06/01 10:30:36;;;;;;;6.13;2.97;;;;;;;38.29;20.10;100357.88;5001148;28;20025;-88
2021/06/01 10:33:05;;;;;;;10.55;3.90;;;;;;;37.79;21.15;100351.75;5005298;28;20117;-87
2021/06/01 10:35:37;;;;;;;5.75;2.20;;;;;;;37.81;20.48;100362.41;5012600;28;20108;-87
2021/06/01 10:52:19;;;;;;;3.88;1.58;;;;;;;38.23;18.84;100319.81;5567914;23;20058;-96
2021/06/01 10:54:47;;;;;;;6.68;1.50;;;;;;;38.11;18.70;100324.88;4999863;28;20030;-95
2021/06/01 10:57:14;;;;;;;5.30;1.17;;;;;;;37.58;18.83;100325.59;4996996;28;20018;-95
2021/06/01 10:59:59;;;;;;;9.13;1.83;;;;;;;37.87;17.98;100320.97;5005079;28;20034;-96
2021/06/01 11:02:25;;;;;;;5.28;1.98;;;;;;;37.82;16.82;100318.28;4988284;28;20022;-89
2021/06/01 11:05:10;;;;;;;6.43;1.90;;;;;;;37.30;17.79;100308.84;4972969;28;20026;-90
2021/06/01 11:07:52;;;;;;;4.93;1.27;;;;;;;36.79;18.41;100317.34;5280059;23;20065;-96
2021/06/01 11:10:36;;;;;;;7.55;1.30;;;;;;;36.65;17.86;100312.50;5033695;28;20044;-96
2021/06/01 11:13:03;;;;;;;3.97;1.40;;;;;;;36.79;17.95;100301.75;5031095;28;20034;-96
2021/06/01 11:15:30;;;;;;;3.53;1.20;;;;;;;37.11;18.56;100295.81;5029305;28;20108;-96
2021/06/01 11:18:17;;;;;;;2.83;1.08;;;;;;;37.71;18.30;100294.84;5016770;28;20357;-96
2021/06/01 11:21:08;;;;;;;6.38;1.40;;;;;;;37.72;18.25;100291.00;5024678;28;20049;-96
2021/06/01 11:32:58;;;;;;;5.75;1.70;;;;;;;39.32;16.30;100298.91;5001574;28;20041;-96
2021/06/01 11:35:23;;;;;;;5.85;1.55;;;;;;;39.22;15.93;100304.53;5007796;28;20022;-96
2021/06/01 11:38:16;;;;;;;5.63;1.33;;;;;;;37.84;17.62;100283.19;5295605;22;20026;-96
2021/06/01 11:43:16;;;;;;;2.97;1.17;;;;;;;37.74;17.32;100287.94;5744107;22;20042;-96
2021/06/01 11:51:12;;;;;;;2.20;1.13;;;;;;;37.70;18.41;100274.03;5018436;28;20038;-96
2021/06/01 11:53:49;;;;;;;2.88;1.70;;;;;;;37.52;18.34;100291.94;5013089;28;20037;-96
2021/06/01 11:56:19;;;;;;;2.85;1.50;;;;;;;37.38;18.63;100286.31;5017998;28;20026;-92
2021/06/01 12:05:31;;;;;;;3.15;1.48;;;;;;;37.49;18.85;100290.59;4996679;28;20026;-92
2021/06/01 12:18:30;;;;;;;5.82;1.55;;;;;;;38.10;19.00;100288.44;5004145;28;20084;-96
2021/06/01 12:20:56;;;;;;;2.97;1.52;;;;;;;38.42;18.70;100276.81;5008406;28;20490;-92
2021/06/01 12:23:28;;;;;;;5.32;1.50;;;;;;;37.80;18.89;100270.34;5012418;28;20038;-93
2021/06/01 12:32:10;;;;;;;7.72;1.80;;;;;;;37.48;19.80;100264.34;4970805;28;20559;-91
2021/06/01 12:34:47;;;;;;;3.28;1.50;;;;;;;37.79;18.92;100258.59;5014255;28;20041;-91
2021/06/01 13:05:59;;;;;;;9.20;1.40;;;;;;;33.82;21.69;100236.75;4993915;28;20511;-92
2021/06/01 13:22:11;;;;;;;3.05;1.45;;;;;;;32.42;23.23;100231.03;5006347;28;20076;-90
2021/06/01 13:30:28;;;;;;;4.93;1.50;;;;;;;31.98;23.75;100231.00;4994226;28;20634;-90